Time;durP1;ratioP1;P1;durP2;ratioP2;P2;SDS_P1;SDS_P2;PMS_P1;PMS_P2;Temp;Humidity;BMP_temperature;BMP_pressure;BME280_temperature;BME280_humidity;BME280_pressure;Samples;Min_cycle;Max_cycle;Signal;HPM_P1;HPM_P2
2022/03/23 00:02:34;;;;;;;25.40;15.23;;;;;;;3.78;100.00;102160.69;5981939;29;20045;-92
2022/03/23 00:05:38;;;;;;;30.80;15.52;;;;;;;3.79;100.00;102157.25;5981270;29;20046;-92
2022/03/23 00:08:40;;;;;;;26.58;14.98;;;;;;;3.74;100.00;102152.22;5970580;29;20053;-91
2022/03/23 00:11:42;;;;;;;26.10;14.30;;;;;;;3.73;100.00;102155.69;5993925;29;20538;-92
2022/03/23 00:14:45;;;;;;;25.58;15.63;;;;;;;3.74;100.00;102159.91;5980331;29;20047;-92
2022/03/23 00:17:48;;;;;;;32.03;16.20;;;;;;;3.79;100.00;102157.25;5979485;29;20542;-92
2022/03/23 00:20:50;;;;;;;24.20;13.88;;;;;;;3.78;100.00;102153.84;6001369;29;20459;-92
2022/03/23 00:23:52;;;;;;;27.80;14.57;;;;;;;3.75;100.00;102153.06;5982316;29;20565;-92
2022/03/23 00:26:54;;;;;;;25.40;15.63;;;;;;;3.77;100.00;102154.72;5999433;29;20128;-92
2022/03/23 00:29:56;;;;;;;27.40;15.63;;;;;;;3.73;100.00;102149.72;5975102;29;20038;-92
2022/03/23 00:33:02;;;;;;;27.23;15.05;;;;;;;3.65;100.00;102162.69;5978368;29;21238;-92
2022/03/23 00:36:07;;;;;;;27.67;15.90;;;;;;;3.63;100.00;102159.34;6002268;29;20066;-92
2022/03/23 00:39:09;;;;;;;26.23;15.25;;;;;;;3.59;100.00;102157.72;5962906;29;20242;-92
2022/03/23 00:42:10;;;;;;;25.25;14.40;;;;;;;3.57;100.00;102150.06;5963982;29;20050;-92
2022/03/23 00:45:13;;;;;;;25.38;15.57;;;;;;;3.52;100.00;102157.00;6001675;29;20058;-92
2022/03/23 00:48:16;;;;;;;25.38;15.27;;;;;;;3.49;100.00;102151.97;6001689;29;20054;-91
2022/03/23 00:51:17;;;;;;;25.75;15.05;;;;;;;3.49;100.00;102148.56;5991896;29;20053;-92
2022/03/23 00:54:21;;;;;;;31.13;15.98;;;;;;;3.49;100.00;102148.56;5994965;29;20551;-92
2022/03/23 00:57:23;;;;;;;26.63;14.85;;;;;;;3.44;100.00;102148.69;6005489;29;20463;-92
2022/03/23 01:00:25;;;;;;;26.80;16.50;;;;;;;3.41;100.00;102147.03;5988574;29;20064;-92
2022/03/23 01:03:27;;;;;;;23.35;14.57;;;;;;;3.47;100.00;102151.16;5984227;29;20484;-92
2022/03/23 01:06:29;;;;;;;25.05;15.25;;;;;;;3.42;100.00;102142.75;6010936;29;20602;-92
2022/03/23 01:09:31;;;;;;;24.80;15.73;;;;;;;3.43;100.00;102141.88;5994104;29;20501;-92
2022/03/23 01:12:34;;;;;;;26.73;15.73;;;;;;;3.37;100.00;102147.13;6006115;29;20625;-92
2022/03/23 01:15:37;;;;;;;25.38;15.25;;;;;;;3.30;100.00;102138.75;6003968;29;20092;-92
2022/03/23 01:18:39;;;;;;;25.50;15.73;;;;;;;3.26;100.00;102146.56;5999875;29;20049;-91
2022/03/23 01:21:41;;;;;;;26.33;15.35;;;;;;;3.23;100.00;102153.41;5999689;29;20156;-92
2022/03/23 01:24:45;;;;;;;23.98;15.45;;;;;;;3.19;100.00;102149.22;5997753;29;20046;-92
2022/03/23 01:27:50;;;;;;;26.30;15.57;;;;;;;3.14;100.00;102148.47;5971076;29;20081;-92
2022/03/23 01:30:52;;;;;;;24.45;15.45;;;;;;;3.10;100.00;102146.03;5999077;29;21064;-92
2022/03/23 01:33:59;;;;;;;27.83;15.43;;;;;;;2.99;100.00;102146.25;5981983;29;20045;-92
2022/03/23 01:37:01;;;;;;;26.10;15.60;;;;;;;2.93;100.00;102144.69;5969601;29;20046;-92
2022/03/23 01:40:11;;;;;;;25.38;15.43;;;;;;;2.84;100.00;102146.59;5976338;29;20051;-92
2022/03/23 01:43:13;;;;;;;26.30;15.43;;;;;;;2.78;100.00;102150.97;6000044;29;20403;-92
2022/03/23 01:46:21;;;;;;;24.08;15.82;;;;;;;2.78;100.00;102148.41;6007468;29;20046;-92
2022/03/23 01:49:23;;;;;;;26.15;15.32;;;;;;;2.76;100.00;102147.59;5991596;29;20127;-92
2022/03/23 01:52:31;;;;;;;25.98;15.43;;;;;;;2.72;100.00;102143.38;6010727;29;20125;-92
2022/03/23 01:55:35;;;;;;;26.08;16.58;;;;;;;2.69;100.00;102140.91;6006293;29;20045;-92
2022/03/23 01:58:38;;;;;;;27.45;15.60;;;;;;;2.63;100.00;102132.50;5984358;29;20057;-92
2022/03/23 02:01:44;;;;;;;30.45;15.27;;;;;;;2.57;100.00;102141.97;5987629;29;20759;-92
2022/03/23 02:04:46;;;;;;;26.95;15.20;;;;;;;2.56;100.00;102137.75;5991196;29;20054;-92
2022/03/23 02:07:49;;;;;;;28.77;15.30;;;;;;;2.53;100.00;102134.41;5988396;29;20049;-92
2022/03/23 02:10:51;;;;;;;27.15;15.93;;;;;;;2.45;100.00;102124.31;5990702;29;20034;-92
2022/03/23 02:14:03;;;;;;;28.70;15.55;;;;;;;2.45;100.00;102133.72;5993516;29;20077;-92
2022/03/23 02:17:06;;;;;;;24.83;14.20;;;;;;;2.42;100.00;102132.06;5995773;29;20074;-92
2022/03/23 02:20:11;;;;;;;23.52;15.48;;;;;;;2.43;100.00;102128.63;5991258;29;20415;-92
2022/03/23 02:23:14;;;;;;;21.45;13.25;;;;;;;2.43;100.00;102130.34;5981244;29;20132;-92
2022/03/23 02:26:16;;;;;;;21.58;13.48;;;;;;;2.42;100.00;102136.34;6012746;29;20064;-92
2022/03/23 02:29:20;;;;;;;24.83;13.75;;;;;;;2.40;100.00;102130.41;6007576;29;20050;-92
2022/03/23 02:32:21;;;;;;;22.40;12.95;;;;;;;2.36;100.00;102130.47;6003507;29;20315;-92
2022/03/23 02:35:24;;;;;;;18.85;12.57;;;;;;;2.29;100.00;102126.34;5974745;29;20041;-92
2022/03/23 02:38:27;;;;;;;18.48;11.63;;;;;;;2.28;100.00;102129.75;5992484;29;20470;-92
2022/03/23 02:41:30;;;;;;;17.85;11.48;;;;;;;2.24;100.00;102120.47;6008089;29;20045;-92
2022/03/23 02:44:32;;;;;;;17.15;11.27;;;;;;;2.21;100.00;102119.66;5985996;29;20492;-92
2022/03/23 02:47:34;;;;;;;18.20;10.55;;;;;;;2.22;100.00;102123.94;6006517;29;20074;-92
2022/03/23 02:50:36;;;;;;;16.20;10.40;;;;;;;2.22;100.00;102122.22;6008678;29;20049;-92
2022/03/23 03:04:29;;;;;;;18.80;11.40;;;;;;;2.30;100.00;102117.78;6000302;29;20551;-92
2022/03/23 03:10:52;;;;;;;26.48;14.30;;;;;;;2.26;100.00;102120.44;6008114;29;20056;-92
2022/03/23 03:13:53;;;;;;;24.55;14.75;;;;;;;2.21;100.00;102122.22;6009344;29;20125;-92
2022/03/23 03:16:55;;;;;;;23.88;14.02;;;;;;;2.19;100.00;102123.97;6009937;29;20053;-92
2022/03/23 03:19:57;;;;;;;23.45;15.32;;;;;;;2.17;100.00;102118.91;5972153;29;20050;-92
2022/03/23 03:22:59;;;;;;;26.35;15.63;;;;;;;2.10;100.00;102123.25;5991504;29;20132;-92
2022/03/23 03:26:05;;;;;;;23.10;15.30;;;;;;;2.09;100.00;102128.41;5985876;29;20061;-92
2022/03/23 03:29:07;;;;;;;28.67;16.70;;;;;;;2.04;100.00;102127.66;5994730;29;20041;-92
2022/03/23 03:32:09;;;;;;;26.83;15.15;;;;;;;2.05;100.00;102127.63;6010801;29;20074;-92
2022/03/23 03:35:12;;;;;;;27.90;15.00;;;;;;;2.06;100.00;102129.31;6021704;29;20046;-92
2022/03/23 03:38:13;;;;;;;27.63;14.98;;;;;;;2.02;100.00;102126.84;6030526;29;20053;-92
2022/03/23 03:41:16;;;;;;;24.92;15.48;;;;;;;1.98;100.00;102122.66;6024044;29;20141;-92
2022/03/23 03:44:18;;;;;;;30.50;16.25;;;;;;;1.93;100.00;102127.81;6008260;29;20077;-92
2022/03/23 03:47:20;;;;;;;23.73;14.70;;;;;;;1.86;100.00;102129.66;6006965;29;20110;-92
2022/03/23 03:50:22;;;;;;;28.65;16.55;;;;;;;1.82;100.00;102129.72;6011629;29;20049;-92
2022/03/23 03:53:24;;;;;;;26.05;15.55;;;;;;;1.73;100.00;102126.44;6003850;29;20400;-92
2022/03/23 03:56:30;;;;;;;27.38;15.95;;;;;;;1.70;100.00;102134.16;5998563;29;20053;-92
2022/03/23 03:59:32;;;;;;;29.58;15.93;;;;;;;1.67;100.00;102129.09;6011415;29;20052;-93
2022/03/23 04:02:34;;;;;;;29.58;16.00;;;;;;;1.61;100.00;102128.34;6004785;29;20116;-92
2022/03/23 04:05:36;;;;;;;28.73;16.55;;;;;;;1.65;100.00;102127.44;5989193;29;20768;-92
2022/03/23 04:08:38;;;;;;;29.55;15.57;;;;;;;1.64;100.00;102133.41;5984720;29;20127;-92
2022/03/23 04:11:40;;;;;;;31.00;16.70;;;;;;;1.63;100.00;102129.19;6006496;29;20092;-92
2022/03/23 04:14:42;;;;;;;27.40;15.43;;;;;;;1.61;100.00;102133.47;5984228;29;20065;-92
2022/03/23 04:17:44;;;;;;;31.17;15.75;;;;;;;1.54;100.00;102132.72;6013279;29;20472;-92
2022/03/23 04:20:45;;;;;;;29.25;16.38;;;;;;;1.44;100.00;102133.72;6019967;29;20054;-92
2022/03/23 04:23:47;;;;;;;26.25;15.43;;;;;;;1.34;100.00;102137.25;5999780;29;20110;-92
2022/03/23 04:26:50;;;;;;;25.13;14.23;;;;;;;1.23;100.00;102135.72;6001818;29;20050;-92
2022/03/23 04:29:53;;;;;;;22.02;13.88;;;;;;;1.13;100.00;102136.72;6004075;29;20086;-92
2022/03/23 04:32:55;;;;;;;24.80;13.70;;;;;;;1.05;100.00;102135.97;5995027;29;20064;-92
2022/03/23 04:35:57;;;;;;;30.05;15.63;;;;;;;0.95;100.00;102142.91;6003665;29;20060;-92
2022/03/23 04:39:00;;;;;;;27.63;14.70;;;;;;;0.91;100.00;102138.69;6011695;29;20123;-92
2022/03/23 04:42:04;;;;;;;29.30;15.75;;;;;;;0.89;100.00;102139.56;6012755;29;20050;-93
2022/03/23 04:45:07;;;;;;;26.23;15.10;;;;;;;0.86;100.00;102137.91;6002925;29;20058;-92
2022/03/23 04:48:09;;;;;;;24.50;15.23;;;;;;;0.94;100.00;102148.00;6001249;29;20053;-92
2022/03/23 04:51:13;;;;;;;28.20;15.70;;;;;;;0.94;100.00;102148.84;6017571;29;20120;-92
2022/03/23 04:54:15;;;;;;;24.98;15.43;;;;;;;0.97;100.00;102153.06;6009149;29;20577;-93
2022/03/23 04:57:18;;;;;;;29.27;16.30;;;;;;;0.92;100.00;102152.28;5998664;29;20360;-92
2022/03/23 05:00:21;;;;;;;30.10;16.20;;;;;;;0.90;100.00;102157.41;6004448;29;20030;-92
2022/03/23 05:03:25;;;;;;;25.00;15.27;;;;;;;0.93;100.00;102154.81;6016052;29;20064;-92
2022/03/23 05:06:27;;;;;;;25.00;14.82;;;;;;;0.92;100.00;102157.38;6014151;29;20046;-92
2022/03/23 05:09:30;;;;;;;27.15;15.38;;;;;;;0.94;100.00;102163.31;5988933;29;20046;-92
2022/03/23 05:12:32;;;;;;;25.90;14.93;;;;;;;0.95;100.00;102170.09;6022243;29;20053;-92
2022/03/23 05:15:34;;;;;;;35.33;15.60;;;;;;;0.90;100.00;102164.22;6021779;29;20054;-92
2022/03/23 05:18:36;;;;;;;24.55;15.07;;;;;;;0.89;100.00;102175.25;5987806;29;20049;-92
2022/03/23 05:21:38;;;;;;;26.00;14.98;;;;;;;0.86;100.00;102173.59;6014895;29;20057;-92
2022/03/23 05:24:41;;;;;;;30.83;15.98;;;;;;;0.82;100.00;102167.72;6003323;29;20091;-92
2022/03/23 05:27:44;;;;;;;26.50;15.00;;;;;;;0.82;100.00;102169.38;6001653;29;20081;-92
2022/03/23 05:30:46;;;;;;;26.60;15.90;;;;;;;0.80;100.00;102174.53;6002641;29;20118;-92
2022/03/23 05:33:49;;;;;;;29.40;15.75;;;;;;;0.79;100.00;102177.06;5989047;29;20050;-92
2022/03/23 05:36:52;;;;;;;27.98;15.98;;;;;;;0.80;100.00;102178.78;6012478;29;20077;-92
2022/03/23 05:39:56;;;;;;;29.35;15.95;;;;;;;0.81;100.00;102173.66;6007067;29;20395;-92
2022/03/23 05:42:58;;;;;;;29.40;16.50;;;;;;;0.86;100.00;102171.03;6022288;29;20046;-92
2022/03/23 05:46:07;;;;;;;26.35;16.20;;;;;;;0.79;100.00;102165.16;5991060;29;20410;-92
2022/03/23 05:49:17;;;;;;;33.47;16.65;;;;;;;0.81;100.00;102168.56;5979707;29;20063;-92
2022/03/23 05:52:20;;;;;;;31.38;17.02;;;;;;;0.85;100.00;102172.75;5974804;29;20043;-92
2022/03/23 05:55:22;;;;;;;29.73;16.73;;;;;;;0.89;100.00;102178.66;5979635;29;20080;-92
2022/03/23 05:58:26;;;;;;;31.27;15.95;;;;;;;0.92;100.00;102175.22;5969264;29;20058;-92
2022/03/23 06:01:32;;;;;;;28.90;16.33;;;;;;;0.92;100.00;102176.09;5984484;29;20529;-92
2022/03/23 06:04:35;;;;;;;27.58;16.10;;;;;;;0.96;100.00;102177.72;5992576;29;20055;-92
2022/03/23 06:07:38;;;;;;;29.15;16.10;;;;;;;1.00;100.00;102186.19;5981943;29;20062;-92
2022/03/23 06:10:41;;;;;;;28.77;15.57;;;;;;;1.01;100.00;102178.50;5961940;29;20142;-91
2022/03/23 06:13:51;;;;;;;27.90;15.68;;;;;;;1.02;100.00;102185.31;5982228;29;20047;-92
2022/03/23 06:16:56;;;;;;;30.63;15.30;;;;;;;1.03;100.00;102184.44;5966494;29;20091;-92
2022/03/23 06:19:58;;;;;;;27.65;16.00;;;;;;;1.08;100.00;102186.94;5967032;29;20051;-92
2022/03/23 06:23:01;;;;;;;29.30;16.65;;;;;;;1.15;100.00;102187.72;5990930;29;20054;-92
2022/03/23 06:26:05;;;;;;;28.98;16.55;;;;;;;1.15;100.00;102188.53;5983576;29;20034;-92
2022/03/23 06:29:08;;;;;;;29.55;16.83;;;;;;;1.19;100.00;102190.19;5960828;29;20051;-92
2022/03/23 06:32:12;;;;;;;33.70;16.50;;;;;;;1.27;100.00;102197.75;5962758;29;20658;-92
2022/03/23 06:35:18;;;;;;;27.23;16.45;;;;;;;1.31;100.00;102196.81;5977492;29;20090;-92
2022/03/23 06:38:20;;;;;;;28.13;16.10;;;;;;;1.33;100.00;102197.66;5963091;29;20054;-92
2022/03/23 06:41:23;;;;;;;41.42;16.20;;;;;;;1.39;100.00;102201.81;5980724;29;20043;-92
2022/03/23 06:44:26;;;;;;;36.33;16.58;;;;;;;1.47;100.00;102205.97;5969576;29;20054;-92
2022/03/23 06:47:31;;;;;;;29.58;16.30;;;;;;;1.53;100.00;102205.03;5976030;29;20053;-92
2022/03/23 06:50:35;;;;;;;30.20;16.48;;;;;;;1.62;100.00;102201.53;5977153;29;20046;-92
2022/03/23 06:53:37;;;;;;;33.97;18.05;;;;;;;1.69;100.00;102198.84;5971844;29;20053;-92
2022/03/23 06:56:38;;;;;;;32.35;17.77;;;;;;;1.78;100.00;102197.00;5973493;29;20141;-92
2022/03/23 06:59:40;;;;;;;31.55;17.48;;;;;;;1.88;100.00;102207.06;5976307;29;20050;-92
2022/03/23 07:02:43;;;;;;;28.77;16.83;;;;;;;1.97;100.00;102200.97;5965512;29;20046;-92
2022/03/23 07:05:45;;;;;;;28.88;16.33;;;;;;;2.04;100.00;102199.16;5954596;29;20632;-92
2022/03/23 07:12:10;;;;;;;33.88;17.88;;;;;;;2.29;100.00;102202.16;5963008;29;20203;-92
2022/03/23 07:15:11;;;;;;;29.60;16.63;;;;;;;2.43;100.00;102197.63;5971646;29;20042;-92
2022/03/23 07:18:14;;;;;;;30.65;18.60;;;;;;;2.59;100.00;102203.31;5969200;29;20128;-92
2022/03/23 07:21:16;;;;;;;30.50;17.33;;;;;;;2.71;100.00;102203.09;5969639;29;20039;-92
2022/03/23 07:24:19;;;;;;;27.35;16.98;;;;;;;2.87;100.00;102205.34;5964344;29;20066;-93
2022/03/23 07:27:24;;;;;;;29.90;17.17;;;;;;;2.94;100.00;102199.22;5979498;29;20039;-92
2022/03/23 07:30:27;;;;;;;30.27;17.67;;;;;;;3.14;100.00;102203.94;5963978;29;20073;-92
2022/03/23 07:33:29;;;;;;;29.55;16.88;;;;;;;3.23;100.00;102204.59;5948736;29;20057;-93
2022/03/23 07:36:31;;;;;;;30.75;16.40;;;;;;;3.30;100.00;102209.56;5940106;29;20059;-93
2022/03/23 07:39:33;;;;;;;29.33;17.77;;;;;;;3.34;100.00;102213.75;5961661;29;20051;-92
2022/03/23 07:42:35;;;;;;;28.30;16.75;;;;;;;3.41;100.00;102208.47;5955075;29;20047;-92
2022/03/23 07:45:37;;;;;;;32.20;16.88;;;;;;;3.47;100.00;102210.03;5955983;29;20055;-92
2022/03/23 07:48:39;;;;;;;28.98;16.80;;;;;;;3.61;100.00;102214.88;5952303;29;20054;-93
2022/03/23 07:51:41;;;;;;;27.55;17.10;;;;;;;3.77;100.00;102217.91;5950816;29;20055;-92
2022/03/23 07:54:43;;;;;;;27.67;16.15;;;;;;;3.93;100.00;102210.72;5939718;29;20107;-93
2022/03/23 07:57:45;;;;;;;28.60;17.67;;;;;;;4.16;100.00;102220.41;5947546;29;20132;-92
2022/03/23 08:00:49;;;;;;;28.05;16.73;;;;;;;4.27;100.00;102221.81;5943966;29;21077;-92
2022/03/23 08:03:51;;;;;;;25.85;15.43;;;;;;;4.36;100.00;102217.34;5955067;29;20126;-92
2022/03/23 08:06:59;;;;;;;25.88;15.98;;;;;;;4.48;100.00;102220.41;5958827;29;20568;-92
2022/03/23 08:10:01;;;;;;;28.33;16.17;;;;;;;4.59;100.00;102225.25;5958729;29;20046;-92
2022/03/23 08:13:07;;;;;;;28.38;15.80;;;;;;;4.73;100.00;102223.16;5956511;29;20141;-92
2022/03/23 08:16:09;;;;;;;25.55;15.30;;;;;;;4.86;100.00;102223.66;5943098;29;20055;-92
2022/03/23 08:19:11;;;;;;;27.15;16.70;;;;;;;5.00;100.00;102227.59;5949906;29;20119;-92
2022/03/23 08:22:13;;;;;;;27.23;15.77;;;;;;;5.11;100.00;102228.09;5950220;29;20077;-92
2022/03/23 08:25:15;;;;;;;29.33;17.30;;;;;;;5.25;100.00;102226.00;5949704;29;20358;-92
2022/03/23 08:28:21;;;;;;;22.38;13.82;;;;;;;5.44;100.00;102220.28;5944998;29;20051;-92
2022/03/23 08:31:23;;;;;;;25.50;15.10;;;;;;;5.66;97.60;102218.75;5951418;29;20204;-92
2022/03/23 08:34:26;;;;;;;36.20;16.70;;;;;;;5.78;91.98;102223.50;5931333;29;20070;-92
2022/03/23 08:37:29;;;;;;;30.85;15.35;;;;;;;5.92;85.94;102222.25;5950073;29;20049;-92
2022/03/23 08:40:35;;;;;;;34.30;15.98;;;;;;;6.11;88.16;102228.50;5938995;29;20059;-92
2022/03/23 08:43:38;;;;;;;24.58;14.20;;;;;;;6.26;87.61;102224.59;5942891;29;20406;-92
2022/03/23 08:46:43;;;;;;;25.80;14.75;;;;;;;6.42;84.63;102230.03;5954077;29;20047;-92
2022/03/23 08:49:48;;;;;;;26.05;16.08;;;;;;;6.55;83.48;102225.31;5956504;29;20039;-92
2022/03/23 08:53:00;;;;;;;22.02;14.18;;;;;;;6.64;81.56;102225.84;5955278;29;20085;-92
2022/03/23 08:56:08;;;;;;;24.05;13.80;;;;;;;6.79;77.84;102229.59;5937191;29;20051;-92
2022/03/23 08:59:10;;;;;;;25.55;14.70;;;;;;;7.00;75.54;102225.41;5946505;29;20069;-91
2022/03/23 09:02:15;;;;;;;22.95;14.05;;;;;;;7.13;75.26;102228.38;5942377;29;20039;-92
2022/03/23 09:05:20;;;;;;;23.45;15.73;;;;;;;7.22;77.91;102232.34;5954948;29;20512;-92
2022/03/23 09:08:23;;;;;;;22.85;15.73;;;;;;;7.51;79.05;102224.34;5950663;29;20603;-92
2022/03/23 09:11:26;;;;;;;25.65;15.68;;;;;;;7.74;75.43;102226.03;5940502;29;20527;-92
2022/03/23 09:14:32;;;;;;;24.38;15.50;;;;;;;7.92;69.29;102221.84;5953610;29;20061;-92
2022/03/23 09:17:36;;;;;;;25.23;14.63;;;;;;;8.00;70.84;102211.25;5955418;29;20054;-92
2022/03/23 09:20:39;;;;;;;31.02;16.48;;;;;;;8.15;69.66;102220.09;5936393;29;20059;-92
2022/03/23 09:23:41;;;;;;;31.13;17.10;;;;;;;8.20;70.58;102207.84;5953898;29;20137;-92
2022/03/23 09:26:43;;;;;;;27.60;15.63;;;;;;;8.32;63.35;102214.22;5954760;29;20493;-92
2022/03/23 09:29:48;;;;;;;25.13;14.85;;;;;;;8.46;63.02;102216.25;5941152;29;20070;-92
2022/03/23 09:32:55;;;;;;;21.60;14.10;;;;;;;8.60;59.31;102212.19;5948068;29;20039;-92
2022/03/23 09:35:57;;;;;;;22.92;13.88;;;;;;;8.77;56.46;102213.16;5946596;29;20497;-92
2022/03/23 09:38:59;;;;;;;23.10;13.90;;;;;;;8.95;49.86;102217.53;5953604;29;20051;-92
2022/03/23 09:42:01;;;;;;;22.05;14.82;;;;;;;9.15;47.62;102214.03;5946077;29;20054;-92
2022/03/23 09:45:15;;;;;;;23.75;14.18;;;;;;;9.30;44.00;102216.81;5950111;29;20065;-91
2022/03/23 09:48:24;;;;;;;21.75;13.60;;;;;;;9.42;42.51;102211.91;5948912;29;20055;-92
2022/03/23 09:51:37;;;;;;;20.75;12.90;;;;;;;9.61;42.20;102211.88;5922797;29;20088;-92
2022/03/23 09:54:42;;;;;;;;;;;;;;;9.80;44.96;102211.81;5953500;29;20154;-91
2022/03/23 09:57:44;;;;;;;23.73;13.63;;;;;;;9.87;44.46;102209.78;5951176;29;19936;-92
2022/03/23 10:00:48;;;;;;;20.13;13.90;;;;;;;10.12;43.73;102210.25;5948616;29;20528;-92
2022/03/23 10:04:14;;;;;;;20.25;12.98;;;;;;;10.26;44.20;102208.69;5953572;29;20047;-92
2022/03/23 10:07:36;;;;;;;18.95;13.27;;;;;;;10.44;43.39;102202.63;5950523;29;20606;-92
2022/03/23 10:11:16;;;;;;;19.77;13.23;;;;;;;10.60;42.94;102207.84;5944466;29;20050;-91
2022/03/23 10:14:59;;;;;;;20.33;12.93;;;;;;;10.78;43.42;102203.44;5950324;29;20464;-91
2022/03/23 10:18:34;;;;;;;18.63;13.18;;;;;;;10.86;41.75;102206.50;5942014;29;20050;-92
2022/03/23 10:21:42;;;;;;;21.92;12.45;;;;;;;11.01;40.52;102198.81;5928663;29;20050;-92
2022/03/23 10:24:44;;;;;;;26.17;12.80;;;;;;;11.08;38.67;102205.31;5948052;29;20054;-92
2022/03/23 10:27:55;;;;;;;21.70;13.40;;;;;;;11.20;38.69;102197.75;5946060;29;20149;-92
2022/03/23 10:31:00;;;;;;;25.67;13.65;;;;;;;11.35;38.28;102197.78;5944498;29;20051;-92
2022/03/23 10:34:10;;;;;;;17.60;12.80;;;;;;;11.37;37.72;102195.97;5932015;29;20044;-92
2022/03/23 10:37:28;;;;;;;25.02;13.10;;;;;;;11.42;38.52;102196.53;5943793;29;20181;-93
2022/03/23 10:40:35;;;;;;;21.15;13.70;;;;;;;11.49;37.27;102195.28;5930008;29;20391;-92
2022/03/23 10:43:42;;;;;;;23.25;12.90;;;;;;;11.53;38.39;102189.00;5939682;29;20406;-92
2022/03/23 10:46:58;;;;;;;22.35;13.98;;;;;;;11.62;39.60;102195.41;5957214;29;20043;-92
2022/03/23 10:50:21;;;;;;;20.90;13.10;;;;;;;11.78;37.73;102192.81;5953030;29;20039;-92
2022/03/23 10:53:41;;;;;;;21.95;13.40;;;;;;;11.91;37.99;102185.19;5942628;29;20051;-92
2022/03/23 10:56:44;;;;;;;22.00;14.25;;;;;;;12.07;37.50;102188.53;5951679;29;20047;-92
2022/03/23 10:59:46;;;;;;;21.58;13.30;;;;;;;12.14;38.62;102184.66;5961270;29;20046;-92
2022/03/23 11:02:48;;;;;;;27.38;14.32;;;;;;;12.25;37.79;102186.63;5963451;29;20069;-92
2022/03/23 11:05:50;;;;;;;21.20;13.95;;;;;;;12.32;36.52;102187.09;5953945;29;20080;-92
2022/03/23 11:08:52;;;;;;;17.83;12.88;;;;;;;12.32;36.80;102177.53;5954221;29;20123;-92
2022/03/23 11:18:37;;;;;;;;;;;;;;;12.86;33.15;102176.88;5972834;29;20057;-92
2022/03/23 11:22:12;;;;;;;21.30;14.07;;;;;;;13.05;37.95;102171.38;5958889;29;20521;-92
2022/03/23 11:25:14;;;;;;;20.70;13.98;;;;;;;13.18;36.75;102172.25;5942153;29;20192;-92
2022/03/23 11:28:20;;;;;;;22.95;14.25;;;;;;;13.30;35.57;102171.50;5954435;29;20046;-92
2022/03/23 11:31:26;;;;;;;24.48;13.68;;;;;;;13.39;33.79;102175.28;5964987;29;20050;-92
2022/03/23 11:34:32;;;;;;;19.25;13.90;;;;;;;13.46;32.80;102175.69;5949302;29;20056;-92
2022/03/23 11:37:37;;;;;;;22.15;14.10;;;;;;;13.50;33.66;102182.38;5950307;29;20050;-92
2022/03/23 11:40:42;;;;;;;24.60;13.35;;;;;;;13.55;32.59;102165.53;5953831;29;20140;-92
2022/03/23 11:43:44;;;;;;;24.23;13.88;;;;;;;13.57;33.58;102163.69;5951374;29;20511;-92
2022/03/23 11:46:54;;;;;;;20.27;13.52;;;;;;;13.56;30.58;102159.41;5955129;29;20043;-91
2022/03/23 11:50:20;;;;;;;21.77;13.68;;;;;;;13.71;31.55;102159.31;5948521;29;20055;-91
2022/03/23 11:54:02;;;;;;;24.38;14.63;;;;;;;13.81;30.45;102154.34;5945382;29;20073;-91
2022/03/23 11:57:09;;;;;;;21.17;12.25;;;;;;;13.96;31.17;102150.72;5953992;29;20051;-94
2022/03/23 12:00:25;;;;;;;27.13;14.23;;;;;;;14.21;32.12;102157.72;5950366;29;20062;-94
2022/03/23 12:03:47;;;;;;;23.00;14.27;;;;;;;14.29;31.56;102152.81;5946434;29;20051;-94
2022/03/23 12:07:04;;;;;;;21.30;13.85;;;;;;;14.41;31.61;102144.16;5963877;29;20057;-94
2022/03/23 12:10:23;;;;;;;19.55;13.77;;;;;;;14.69;33.39;102138.81;5955790;29;20127;-94
2022/03/23 12:13:57;;;;;;;19.40;13.57;;;;;;;14.76;31.63;102140.88;5936662;29;20045;-94
2022/03/23 12:17:15;;;;;;;27.65;12.70;;;;;;;14.80;29.22;102134.50;5958290;29;20545;-94
2022/03/23 12:20:39;;;;;;;14.93;11.80;;;;;;;14.93;30.14;102126.66;5954693;29;20039;-92
2022/03/23 12:24:01;;;;;;;18.70;12.98;;;;;;;14.99;31.01;102130.59;5944739;29;20055;-92
2022/03/23 12:27:33;;;;;;;19.73;13.65;;;;;;;15.06;29.48;102124.81;5962183;29;20401;-92
2022/03/23 12:31:10;;;;;;;17.98;12.98;;;;;;;15.12;31.15;102117.47;5957958;29;20074;-93
2022/03/23 12:34:18;;;;;;;16.90;12.75;;;;;;;15.40;29.19;102111.06;5940709;29;20512;-92
2022/03/23 12:37:21;;;;;;;24.35;13.55;;;;;;;15.31;29.60;102112.59;5946922;29;20145;-92
2022/03/23 12:40:40;;;;;;;20.92;15.10;;;;;;;15.25;29.03;102097.38;5945579;29;20130;-92
2022/03/23 12:43:49;;;;;;;19.20;14.02;;;;;;;15.46;32.37;102101.00;5960469;29;20416;-92
2022/03/23 12:46:51;;;;;;;22.50;14.30;;;;;;;15.59;32.83;102095.69;5959936;29;20064;-92
2022/03/23 13:00:30;;;;;;;20.10;14.50;;;;;;;15.96;32.05;102098.16;5951055;29;20851;-92
2022/03/23 13:03:32;;;;;;;20.60;14.57;;;;;;;15.97;29.22;102086.75;5945510;29;20129;-92
2022/03/23 13:06:37;;;;;;;18.52;13.68;;;;;;;15.96;28.06;102092.94;5952596;29;20047;-92
2022/03/23 13:09:40;;;;;;;20.55;13.68;;;;;;;15.98;28.51;102087.59;5952577;29;20059;-92
2022/03/23 13:12:44;;;;;;;18.35;13.48;;;;;;;16.05;29.47;102081.78;5955651;29;20121;-92
2022/03/23 13:15:49;;;;;;;18.08;14.27;;;;;;;16.15;29.06;102074.06;5950219;29;20063;-92
2022/03/23 13:19:02;;;;;;;18.27;13.65;;;;;;;16.36;28.85;102069.75;5950433;29;20328;-92
2022/03/23 13:22:04;;;;;;;22.30;14.65;;;;;;;16.54;30.44;102072.69;5948989;29;20650;-92
2022/03/23 13:25:13;;;;;;;16.38;13.32;;;;;;;16.53;31.56;102071.03;5945004;29;20751;-92
2022/03/23 13:28:15;;;;;;;17.73;13.43;;;;;;;16.77;28.55;102073.50;5933456;29;20050;-91
2022/03/23 13:31:22;;;;;;;20.80;14.10;;;;;;;16.90;27.55;102075.97;5937826;29;20431;-92
2022/03/23 13:34:25;;;;;;;18.75;14.05;;;;;;;16.83;26.63;102064.34;5952600;29;20077;-92
2022/03/23 13:37:28;;;;;;;19.58;13.63;;;;;;;16.86;28.02;102064.09;5937295;29;20116;-92
2022/03/23 13:43:19;;;;;;;21.35;13.88;;;;;;;17.00;28.81;102055.94;5947840;29;20050;-92
2022/03/23 13:43:58;;;;;;;18.33;14.07;;;;;;;17.12;29.63;102053.28;5950561;29;20053;-92
2022/03/23 13:47:00;;;;;;;22.38;13.68;;;;;;;17.29;29.67;102054.50;5944600;29;20097;-92
2022/03/23 13:50:08;;;;;;;18.42;14.52;;;;;;;17.49;25.51;102047.59;5946653;29;20188;-92
2022/03/23 13:53:18;;;;;;;17.77;14.27;;;;;;;17.59;31.17;102049.31;5949010;29;20508;-92
2022/03/23 13:56:19;;;;;;;20.45;13.60;;;;;;;17.66;30.29;102039.13;5952243;29;20054;-92
2022/03/23 13:59:22;;;;;;;20.98;14.35;;;;;;;17.65;28.61;102047.97;5947823;29;20787;-91
2022/03/23 14:02:27;;;;;;;19.48;14.40;;;;;;;17.59;24.45;102038.84;5950738;29;20063;-92
2022/03/23 14:06:19;;;;;;;21.38;14.48;;;;;;;17.62;30.20;102043.00;5945995;29;20069;-92
2022/03/23 14:09:23;;;;;;;18.88;14.02;;;;;;;17.64;26.75;102044.53;5881545;30;20072;-91
2022/03/23 14:12:26;;;;;;;18.90;14.05;;;;;;;17.67;26.96;102042.63;5885013;30;20080;-92
2022/03/23 14:15:30;;;;;;;24.27;13.95;;;;;;;17.67;26.35;102048.66;5867642;30;20052;-92
2022/03/23 14:18:33;;;;;;;18.15;14.05;;;;;;;17.65;24.03;102045.34;5883465;30;20067;-92
2022/03/23 14:21:36;;;;;;;22.00;13.80;;;;;;;17.59;24.41;102043.25;5866790;30;20052;-91
2022/03/23 14:24:38;;;;;;;18.48;13.98;;;;;;;17.56;26.17;102033.84;5885070;30;20048;-91
2022/03/23 14:27:41;;;;;;;16.90;14.45;;;;;;;17.71;24.85;102031.72;5881399;30;20139;-91
2022/03/23 14:30:47;;;;;;;19.02;13.23;;;;;;;17.68;23.72;102032.00;5884285;30;20427;-92
2022/03/23 14:34:04;;;;;;;18.67;13.57;;;;;;;17.68;24.80;102026.75;5888537;30;20064;-91
2022/03/23 14:37:09;;;;;;;18.23;13.35;;;;;;;17.62;25.53;102012.41;5888530;30;20497;-92
2022/03/23 14:40:32;;;;;;;20.15;13.93;;;;;;;17.83;24.46;102014.16;5873424;30;20143;-92
2022/03/23 14:43:39;;;;;;;17.90;13.48;;;;;;;17.94;25.00;102010.63;5878863;30;20056;-92